sensor_id;sensor_type;location;lat;lon;timestamp;P1;durP1;ratioP1;P2;durP2;ratioP2
3922;SDS011;1976;51.694;6.256;2023-08-21T00:00:21;7.03;;;2.47;;
3922;SDS011;1976;51.694;6.256;2023-08-21T00:02:46;4.97;;;2.00;;
3922;SDS011;1976;51.694;6.256;2023-08-21T00:05:12;9.50;;;2.00;;
3922;SDS011;1976;51.694;6.256;2023-08-21T00:07:37;9.87;;;3.27;;
3922;SDS011;1976;51.694;6.256;2023-08-21T00:10:03;8.23;;;2.50;;
3922;SDS011;1976;51.694;6.256;2023-08-21T00:12:29;5.90;;;2.20;;
3922;SDS011;1976;51.694;6.256;2023-08-21T00:14:55;5.60;;;2.40;;
3922;SDS011;1976;51.694;6.256;2023-08-21T00:17:21;6.10;;;2.30;;
3922;SDS011;1976;51.694;6.256;2023-08-21T00:19:47;5.70;;;1.87;;
3922;SDS011;1976;51.694;6.256;2023-08-21T00:22:12;5.40;;;2.13;;
3922;SDS011;1976;51.694;6.256;2023-08-21T00:24:38;2.77;;;1.77;;
3922;SDS011;1976;51.694;6.256;2023-08-21T00:27:04;4.77;;;1.70;;
3922;SDS011;1976;51.694;6.256;2023-08-21T00:29:30;3.23;;;1.87;;
3922;SDS011;1976;51.694;6.256;2023-08-21T00:31:56;5.10;;;1.70;;
3922;SDS011;1976;51.694;6.256;2023-08-21T00:34:22;2.70;;;1.97;;
3922;SDS011;1976;51.694;6.256;2023-08-21T00:36:47;1.97;;;1.77;;
3922;SDS011;1976;51.694;6.256;2023-08-21T00:39:13;4.23;;;1.93;;
3922;SDS011;1976;51.694;6.256;2023-08-21T00:41:39;4.67;;;1.77;;
3922;SDS011;1976;51.694;6.256;2023-08-21T00:44:04;18.00;;;3.17;;
3922;SDS011;1976;51.694;6.256;2023-08-21T00:46:31;6.07;;;2.60;;
3922;SDS011;1976;51.694;6.256;2023-08-21T00:48:57;4.83;;;1.90;;
3922;SDS011;1976;51.694;6.256;2023-08-21T00:51:23;9.43;;;2.00;;
3922;SDS011;1976;51.694;6.256;2023-08-21T00:53:49;8.73;;;2.53;;
3922;SDS011;1976;51.694;6.256;2023-08-21T00:56:15;4.83;;;1.97;;
3922;SDS011;1976;51.694;6.256;2023-08-21T00:58:41;5.40;;;2.00;;
3922;SDS011;1976;51.694;6.256;2023-08-21T01:01:08;4.30;;;2.30;;
3922;SDS011;1976;51.694;6.256;2023-08-21T01:03:35;8.43;;;2.73;;
3922;SDS011;1976;51.694;6.256;2023-08-21T01:06:00;9.13;;;2.13;;
3922;SDS011;1976;51.694;6.256;2023-08-21T01:11:50;7.47;;;2.40;;
3922;SDS011;1976;51.694;6.256;2023-08-21T01:14:22;12.83;;;2.43;;
3922;SDS011;1976;51.694;6.256;2023-08-21T01:16:59;6.50;;;2.53;;
3922;SDS011;1976;51.694;6.256;2023-08-21T01:19:38;7.57;;;2.40;;
3922;SDS011;1976;51.694;6.256;2023-08-21T01:22:06;8.43;;;2.70;;
3922;SDS011;1976;51.694;6.256;2023-08-21T01:24:32;11.67;;;2.20;;
3922;SDS011;1976;51.694;6.256;2023-08-21T01:26:58;11.30;;;2.83;;
3922;SDS011;1976;51.694;6.256;2023-08-21T01:29:24;5.50;;;2.50;;
3922;SDS011;1976;51.694;6.256;2023-08-21T01:31:54;10.63;;;2.30;;
3922;SDS011;1976;51.694;6.256;2023-08-21T01:34:28;4.57;;;2.37;;
3922;SDS011;1976;51.694;6.256;2023-08-21T01:36:58;11.57;;;2.50;;
3922;SDS011;1976;51.694;6.256;2023-08-21T01:39:24;4.17;;;2.83;;
3922;SDS011;1976;51.694;6.256;2023-08-21T01:41:50;5.43;;;2.40;;
3922;SDS011;1976;51.694;6.256;2023-08-21T01:44:16;9.10;;;2.50;;
3922;SDS011;1976;51.694;6.256;2023-08-21T01:46:42;3.10;;;2.10;;
3922;SDS011;1976;51.694;6.256;2023-08-21T01:49:07;3.30;;;2.37;;
3922;SDS011;1976;51.694;6.256;2023-08-21T01:51:33;12.33;;;3.10;;
3922;SDS011;1976;51.694;6.256;2023-08-21T01:53:59;2.77;;;2.30;;
3922;SDS011;1976;51.694;6.256;2023-08-21T01:56:24;10.40;;;2.93;;
3922;SDS011;1976;51.694;6.256;2023-08-21T01:58:50;7.13;;;2.87;;
3922;SDS011;1976;51.694;6.256;2023-08-21T02:01:16;12.03;;;3.30;;
3922;SDS011;1976;51.694;6.256;2023-08-21T02:03:43;6.67;;;2.27;;
3922;SDS011;1976;51.694;6.256;2023-08-21T02:06:08;7.93;;;2.50;;
3922;SDS011;1976;51.694;6.256;2023-08-21T02:08:34;11.93;;;3.33;;
3922;SDS011;1976;51.694;6.256;2023-08-21T02:11:00;7.10;;;2.43;;
3922;SDS011;1976;51.694;6.256;2023-08-21T02:13:26;4.80;;;2.77;;
3922;SDS011;1976;51.694;6.256;2023-08-21T02:15:52;7.13;;;2.57;;
3922;SDS011;1976;51.694;6.256;2023-08-21T02:18:17;8.50;;;3.03;;
3922;SDS011;1976;51.694;6.256;2023-08-21T02:20:43;11.00;;;2.47;;
3922;SDS011;1976;51.694;6.256;2023-08-21T02:23:09;3.77;;;2.60;;
3922;SDS011;1976;51.694;6.256;2023-08-21T02:25:34;9.57;;;2.60;;
3922;SDS011;1976;51.694;6.256;2023-08-21T02:28:00;7.97;;;2.67;;
3922;SDS011;1976;51.694;6.256;2023-08-21T02:30:27;6.53;;;2.53;;
3922;SDS011;1976;51.694;6.256;2023-08-21T02:32:53;5.43;;;2.60;;
3922;SDS011;1976;51.694;6.256;2023-08-21T02:35:22;8.57;;;2.93;;
3922;SDS011;1976;51.694;6.256;2023-08-21T02:37:48;10.00;;;2.97;;
3922;SDS011;1976;51.694;6.256;2023-08-21T02:40:14;7.60;;;2.90;;
3922;SDS011;1976;51.694;6.256;2023-08-21T02:42:39;6.30;;;2.83;;
3922;SDS011;1976;51.694;6.256;2023-08-21T02:45:05;8.53;;;2.80;;
3922;SDS011;1976;51.694;6.256;2023-08-21T02:47:37;6.63;;;2.73;;
3922;SDS011;1976;51.694;6.256;2023-08-21T02:50:04;4.87;;;3.50;;
3922;SDS011;1976;51.694;6.256;2023-08-21T02:52:31;5.13;;;3.13;;
3922;SDS011;1976;51.694;6.256;2023-08-21T02:54:58;4.90;;;2.80;;
3922;SDS011;1976;51.694;6.256;2023-08-21T02:57:24;9.83;;;2.90;;
3922;SDS011;1976;51.694;6.256;2023-08-21T02:59:50;11.03;;;3.57;;
3922;SDS011;1976;51.694;6.256;2023-08-21T03:02:16;5.03;;;2.70;;
3922;SDS011;1976;51.694;6.256;2023-08-21T03:04:43;7.93;;;3.13;;
3922;SDS011;1976;51.694;6.256;2023-08-21T03:07:08;8.73;;;3.80;;
3922;SDS011;1976;51.694;6.256;2023-08-21T03:09:34;9.53;;;3.03;;
3922;SDS011;1976;51.694;6.256;2023-08-21T03:11:59;7.10;;;3.03;;
3922;SDS011;1976;51.694;6.256;2023-08-21T03:14:26;12.93;;;3.60;;
3922;SDS011;1976;51.694;6.256;2023-08-21T03:16:52;6.37;;;2.40;;
3922;SDS011;1976;51.694;6.256;2023-08-21T03:19:17;4.07;;;2.77;;
3922;SDS011;1976;51.694;6.256;2023-08-21T03:21:43;9.20;;;3.03;;
3922;SDS011;1976;51.694;6.256;2023-08-21T03:24:09;6.57;;;3.40;;
3922;SDS011;1976;51.694;6.256;2023-08-21T03:26:34;8.10;;;2.90;;
3922;SDS011;1976;51.694;6.256;2023-08-21T03:29:00;7.53;;;4.20;;
3922;SDS011;1976;51.694;6.256;2023-08-21T03:31:26;13.13;;;3.40;;
3922;SDS011;1976;51.694;6.256;2023-08-21T03:33:52;7.83;;;3.50;;
3922;SDS011;1976;51.694;6.256;2023-08-21T03:36:17;6.50;;;3.13;;
3922;SDS011;1976;51.694;6.256;2023-08-21T03:38:44;6.40;;;3.33;;
3922;SDS011;1976;51.694;6.256;2023-08-21T03:41:10;7.73;;;3.07;;
3922;SDS011;1976;51.694;6.256;2023-08-21T03:43:36;8.23;;;3.60;;
3922;SDS011;1976;51.694;6.256;2023-08-21T03:46:02;11.90;;;3.53;;
3922;SDS011;1976;51.694;6.256;2023-08-21T03:48:28;9.60;;;4.47;;
3922;SDS011;1976;51.694;6.256;2023-08-21T03:50:53;7.27;;;3.13;;
3922;SDS011;1976;51.694;6.256;2023-08-21T03:53:19;9.27;;;3.57;;
3922;SDS011;1976;51.694;6.256;2023-08-21T03:55:44;10.60;;;3.87;;
3922;SDS011;1976;51.694;6.256;2023-08-21T03:58:10;5.23;;;3.33;;
3922;SDS011;1976;51.694;6.256;2023-08-21T04:00:36;7.27;;;3.57;;
3922;SDS011;1976;51.694;6.256;2023-08-21T04:03:02;13.30;;;4.10;;
3922;SDS011;1976;51.694;6.256;2023-08-21T04:05:28;10.13;;;4.10;;
3922;SDS011;1976;51.694;6.256;2023-08-21T04:07:53;10.23;;;3.53;;
3922;SDS011;1976;51.694;6.256;2023-08-21T04:10:19;8.63;;;4.00;;
3922;SDS011;1976;51.694;6.256;2023-08-21T04:12:44;11.10;;;3.63;;
3922;SDS011;1976;51.694;6.256;2023-08-21T04:15:10;7.20;;;3.17;;
3922;SDS011;1976;51.694;6.256;2023-08-21T04:17:35;9.30;;;3.60;;
3922;SDS011;1976;51.694;6.256;2023-08-21T04:20:02;11.17;;;3.43;;
3922;SDS011;1976;51.694;6.256;2023-08-21T04:22:28;7.33;;;3.40;;
3922;SDS011;1976;51.694;6.256;2023-08-21T04:24:53;6.10;;;3.60;;
3922;SDS011;1976;51.694;6.256;2023-08-21T04:27:19;12.83;;;4.13;;
3922;SDS011;1976;51.694;6.256;2023-08-21T04:29:44;14.00;;;3.97;;
3922;SDS011;1976;51.694;6.256;2023-08-21T04:32:10;6.37;;;3.33;;
3922;SDS011;1976;51.694;6.256;2023-08-21T04:34:37;7.83;;;3.17;;
3922;SDS011;1976;51.694;6.256;2023-08-21T04:37:03;3.83;;;3.10;;
3922;SDS011;1976;51.694;6.256;2023-08-21T04:39:29;6.53;;;4.20;;
3922;SDS011;1976;51.694;6.256;2023-08-21T04:41:55;11.77;;;4.80;;
3922;SDS011;1976;51.694;6.256;2023-08-21T04:44:21;8.83;;;3.83;;
3922;SDS011;1976;51.694;6.256;2023-08-21T04:46:47;8.43;;;4.30;;
3922;SDS011;1976;51.694;6.256;2023-08-21T04:49:15;25.20;;;5.23;;
3922;SDS011;1976;51.694;6.256;2023-08-21T04:51:41;7.93;;;3.90;;
3922;SDS011;1976;51.694;6.256;2023-08-21T04:54:07;13.33;;;4.63;;
3922;SDS011;1976;51.694;6.256;2023-08-21T04:56:32;8.77;;;4.43;;
3922;SDS011;1976;51.694;6.256;2023-08-21T04:58:58;12.40;;;5.10;;
3922;SDS011;1976;51.694;6.256;2023-08-21T05:01:23;9.47;;;4.27;;
3922;SDS011;1976;51.694;6.256;2023-08-21T05:03:49;8.20;;;4.37;;
3922;SDS011;1976;51.694;6.256;2023-08-21T05:06:15;11.97;;;4.83;;
3922;SDS011;1976;51.694;6.256;2023-08-21T05:08:41;16.37;;;4.60;;
3922;SDS011;1976;51.694;6.256;2023-08-21T05:11:07;10.73;;;4.70;;
3922;SDS011;1976;51.694;6.256;2023-08-21T05:13:32;11.90;;;4.60;;
3922;SDS011;1976;51.694;6.256;2023-08-21T05:15:58;11.77;;;3.87;;
3922;SDS011;1976;51.694;6.256;2023-08-21T05:18:24;21.73;;;5.37;;
3922;SDS011;1976;51.694;6.256;2023-08-21T05:20:51;11.80;;;4.77;;
3922;SDS011;1976;51.694;6.256;2023-08-21T05:23:19;10.67;;;5.50;;
3922;SDS011;1976;51.694;6.256;2023-08-21T05:25:45;7.70;;;4.27;;
3922;SDS011;1976;51.694;6.256;2023-08-21T05:28:13;7.83;;;4.70;;
3922;SDS011;1976;51.694;6.256;2023-08-21T05:30:38;15.07;;;5.37;;
3922;SDS011;1976;51.694;6.256;2023-08-21T05:33:04;19.17;;;6.17;;
3922;SDS011;1976;51.694;6.256;2023-08-21T05:35:34;13.00;;;4.70;;
3922;SDS011;1976;51.694;6.256;2023-08-21T05:38:03;8.97;;;5.30;;
3922;SDS011;1976;51.694;6.256;2023-08-21T05:40:29;16.23;;;5.20;;
3922;SDS011;1976;51.694;6.256;2023-08-21T05:42:55;9.40;;;4.83;;
3922;SDS011;1976;51.694;6.256;2023-08-21T05:45:21;9.83;;;4.73;;
3922;SDS011;1976;51.694;6.256;2023-08-21T05:47:46;11.10;;;4.93;;
3922;SDS011;1976;51.694;6.256;2023-08-21T05:50:12;11.40;;;5.43;;
3922;SDS011;1976;51.694;6.256;2023-08-21T05:52:37;9.17;;;4.77;;
3922;SDS011;1976;51.694;6.256;2023-08-21T05:55:04;6.93;;;4.30;;
3922;SDS011;1976;51.694;6.256;2023-08-21T05:57:30;10.00;;;5.07;;
3922;SDS011;1976;51.694;6.256;2023-08-21T05:59:56;10.23;;;4.57;;
3922;SDS011;1976;51.694;6.256;2023-08-21T06:02:22;13.87;;;5.53;;
3922;SDS011;1976;51.694;6.256;2023-08-21T06:04:47;7.03;;;4.23;;
3922;SDS011;1976;51.694;6.256;2023-08-21T06:07:13;9.50;;;4.80;;
3922;SDS011;1976;51.694;6.256;2023-08-21T06:09:38;12.00;;;4.73;;
3922;SDS011;1976;51.694;6.256;2023-08-21T06:12:04;7.10;;;4.20;;
3922;SDS011;1976;51.694;6.256;2023-08-21T06:14:30;14.90;;;4.60;;
3922;SDS011;1976;51.694;6.256;2023-08-21T06:16:59;9.77;;;4.53;;
3922;SDS011;1976;51.694;6.256;2023-08-21T06:19:26;15.23;;;6.10;;
3922;SDS011;1976;51.694;6.256;2023-08-21T06:21:52;16.03;;;4.33;;
3922;SDS011;1976;51.694;6.256;2023-08-21T06:24:18;7.43;;;4.10;;
3922;SDS011;1976;51.694;6.256;2023-08-21T06:26:43;10.50;;;4.57;;
3922;SDS011;1976;51.694;6.256;2023-08-21T06:29:09;8.27;;;4.30;;
3922;SDS011;1976;51.694;6.256;2023-08-21T06:31:34;17.33;;;4.80;;
3922;SDS011;1976;51.694;6.256;2023-08-21T06:34:00;11.30;;;4.70;;
3922;SDS011;1976;51.694;6.256;2023-08-21T06:36:26;7.27;;;4.27;;
3922;SDS011;1976;51.694;6.256;2023-08-21T06:38:51;12.20;;;5.30;;
3922;SDS011;1976;51.694;6.256;2023-08-21T06:41:17;6.70;;;4.37;;
3922;SDS011;1976;51.694;6.256;2023-08-21T06:43:43;13.40;;;5.10;;
3922;SDS011;1976;51.694;6.256;2023-08-21T06:46:09;12.40;;;4.80;;
3922;SDS011;1976;51.694;6.256;2023-08-21T06:48:37;14.73;;;5.30;;
3922;SDS011;1976;51.694;6.256;2023-08-21T06:51:04;19.53;;;4.80;;
3922;SDS011;1976;51.694;6.256;2023-08-21T06:53:29;9.30;;;5.10;;
3922;SDS011;1976;51.694;6.256;2023-08-21T06:55:55;11.70;;;4.07;;
3922;SDS011;1976;51.694;6.256;2023-08-21T06:58:21;14.03;;;4.27;;
3922;SDS011;1976;51.694;6.256;2023-08-21T07:00:47;11.57;;;4.30;;
3922;SDS011;1976;51.694;6.256;2023-08-21T07:03:12;19.20;;;4.80;;
3922;SDS011;1976;51.694;6.256;2023-08-21T07:05:38;10.33;;;4.60;;
3922;SDS011;1976;51.694;6.256;2023-08-21T07:08:04;12.33;;;4.67;;
3922;SDS011;1976;51.694;6.256;2023-08-21T07:10:30;13.63;;;4.73;;
3922;SDS011;1976;51.694;6.256;2023-08-21T07:13:02;11.07;;;4.77;;
3922;SDS011;1976;51.694;6.256;2023-08-21T07:15:28;13.00;;;4.20;;
3922;SDS011;1976;51.694;6.256;2023-08-21T07:17:55;13.43;;;4.20;;
3922;SDS011;1976;51.694;6.256;2023-08-21T07:20:21;5.77;;;3.67;;
3922;SDS011;1976;51.694;6.256;2023-08-21T07:22:47;10.73;;;4.43;;
3922;SDS011;1976;51.694;6.256;2023-08-21T07:25:12;10.27;;;3.80;;
3922;SDS011;1976;51.694;6.256;2023-08-21T07:27:38;12.83;;;3.70;;
3922;SDS011;1976;51.694;6.256;2023-08-21T07:30:05;6.57;;;3.57;;
3922;SDS011;1976;51.694;6.256;2023-08-21T07:32:31;11.60;;;3.63;;
3922;SDS011;1976;51.694;6.256;2023-08-21T07:34:57;5.97;;;3.63;;
3922;SDS011;1976;51.694;6.256;2023-08-21T07:37:22;16.07;;;3.90;;
3922;SDS011;1976;51.694;6.256;2023-08-21T07:39:48;5.67;;;3.10;;
3922;SDS011;1976;51.694;6.256;2023-08-21T07:42:13;12.53;;;3.93;;
3922;SDS011;1976;51.694;6.256;2023-08-21T07:44:39;12.47;;;3.30;;
3922;SDS011;1976;51.694;6.256;2023-08-21T07:47:05;16.43;;;3.40;;
3922;SDS011;1976;51.694;6.256;2023-08-21T07:49:31;9.00;;;3.13;;
3922;SDS011;1976;51.694;6.256;2023-08-21T07:51:59;6.83;;;3.43;;
3922;SDS011;1976;51.694;6.256;2023-08-21T07:54:25;8.47;;;2.60;;
3922;SDS011;1976;51.694;6.256;2023-08-21T07:56:50;7.83;;;3.00;;
3922;SDS011;1976;51.694;6.256;2023-08-21T07:59:16;7.67;;;2.30;;
3922;SDS011;1976;51.694;6.256;2023-08-21T08:01:42;6.47;;;2.40;;
3922;SDS011;1976;51.694;6.256;2023-08-21T08:04:08;4.93;;;2.00;;
3922;SDS011;1976;51.694;6.256;2023-08-21T08:06:33;5.90;;;1.87;;
3922;SDS011;1976;51.694;6.256;2023-08-21T08:08:59;5.63;;;1.90;;
3922;SDS011;1976;51.694;6.256;2023-08-21T08:11:25;4.63;;;1.80;;
3922;SDS011;1976;51.694;6.256;2023-08-21T08:13:50;8.07;;;2.27;;
3922;SDS011;1976;51.694;6.256;2023-08-21T08:16:16;17.23;;;2.50;;
3922;SDS011;1976;51.694;6.256;2023-08-21T08:18:42;6.20;;;2.40;;
3922;SDS011;1976;51.694;6.256;2023-08-21T08:21:08;7.90;;;2.57;;
3922;SDS011;1976;51.694;6.256;2023-08-21T08:23:34;5.73;;;1.90;;
3922;SDS011;1976;51.694;6.256;2023-08-21T08:25:59;12.93;;;2.00;;
3922;SDS011;1976;51.694;6.256;2023-08-21T08:28:25;10.57;;;2.50;;
3922;SDS011;1976;51.694;6.256;2023-08-21T08:30:51;10.03;;;2.90;;
3922;SDS011;1976;51.694;6.256;2023-08-21T08:33:17;10.03;;;2.00;;
3922;SDS011;1976;51.694;6.256;2023-08-21T08:35:42;6.70;;;2.17;;
3922;SDS011;1976;51.694;6.256;2023-08-21T08:38:08;12.80;;;1.60;;
3922;SDS011;1976;51.694;6.256;2023-08-21T08:40:35;4.10;;;1.53;;
3922;SDS011;1976;51.694;6.256;2023-08-21T08:43:07;15.67;;;3.33;;
3922;SDS011;1976;51.694;6.256;2023-08-21T08:45:34;4.40;;;1.50;;
3922;SDS011;1976;51.694;6.256;2023-08-21T08:48:00;7.30;;;2.00;;
3922;SDS011;1976;51.694;6.256;2023-08-21T08:50:28;9.33;;;2.53;;
3922;SDS011;1976;51.694;6.256;2023-08-21T08:52:55;3.60;;;1.53;;
3922;SDS011;1976;51.694;6.256;2023-08-21T08:55:22;5.47;;;1.63;;
3922;SDS011;1976;51.694;6.256;2023-08-21T08:57:48;4.87;;;1.67;;
3922;SDS011;1976;51.694;6.256;2023-08-21T09:00:14;8.57;;;1.63;;
3922;SDS011;1976;51.694;6.256;2023-08-21T09:02:40;5.40;;;1.77;;
3922;SDS011;1976;51.694;6.256;2023-08-21T09:05:06;6.63;;;2.07;;
3922;SDS011;1976;51.694;6.256;2023-08-21T09:07:33;3.83;;;1.73;;
3922;SDS011;1976;51.694;6.256;2023-08-21T09:09:59;10.10;;;1.70;;
3922;SDS011;1976;51.694;6.256;2023-08-21T09:12:25;4.73;;;1.80;;
3922;SDS011;1976;51.694;6.256;2023-08-21T09:14:50;4.37;;;1.50;;
3922;SDS011;1976;51.694;6.256;2023-08-21T09:17:16;5.87;;;1.50;;
3922;SDS011;1976;51.694;6.256;2023-08-21T09:19:42;5.53;;;1.67;;
3922;SDS011;1976;51.694;6.256;2023-08-21T09:22:09;2.80;;;1.37;;
3922;SDS011;1976;51.694;6.256;2023-08-21T09:24:38;3.23;;;1.33;;
3922;SDS011;1976;51.694;6.256;2023-08-21T09:27:04;4.23;;;1.20;;
3922;SDS011;1976;51.694;6.256;2023-08-21T09:29:38;5.73;;;1.63;;
3922;SDS011;1976;51.694;6.256;2023-08-21T09:32:07;3.83;;;1.63;;
3922;SDS011;1976;51.694;6.256;2023-08-21T09:34:36;6.57;;;1.83;;
3922;SDS011;1976;51.694;6.256;2023-08-21T09:37:06;7.40;;;1.50;;
3922;SDS011;1976;51.694;6.256;2023-08-21T09:39:33;4.03;;;1.50;;
3922;SDS011;1976;51.694;6.256;2023-08-21T09:42:05;5.30;;;1.53;;
3922;SDS011;1976;51.694;6.256;2023-08-21T09:44:38;4.07;;;1.37;;
3922;SDS011;1976;51.694;6.256;2023-08-21T09:47:09;3.10;;;1.00;;
3922;SDS011;1976;51.694;6.256;2023-08-21T09:49:36;3.63;;;1.13;;
3922;SDS011;1976;51.694;6.256;2023-08-21T09:52:05;4.90;;;1.23;;
3922;SDS011;1976;51.694;6.256;2023-08-21T09:54:33;5.70;;;1.20;;
3922;SDS011;1976;51.694;6.256;2023-08-21T09:57:02;6.57;;;1.87;;
3922;SDS011;1976;51.694;6.256;2023-08-21T09:59:29;1.53;;;1.20;;
3922;SDS011;1976;51.694;6.256;2023-08-21T10:01:56;5.07;;;1.23;;
3922;SDS011;1976;51.694;6.256;2023-08-21T10:04:27;14.90;;;2.30;;
3922;SDS011;1976;51.694;6.256;2023-08-21T10:06:54;5.73;;;1.27;;
3922;SDS011;1976;51.694;6.256;2023-08-21T10:09:21;4.80;;;1.60;;
3922;SDS011;1976;51.694;6.256;2023-08-21T10:11:48;11.73;;;1.33;;
3922;SDS011;1976;51.694;6.256;2023-08-21T10:14:15;6.70;;;1.50;;
3922;SDS011;1976;51.694;6.256;2023-08-21T10:16:41;3.80;;;1.53;;
3922;SDS011;1976;51.694;6.256;2023-08-21T10:19:07;4.67;;;1.37;;
3922;SDS011;1976;51.694;6.256;2023-08-21T10:21:35;6.70;;;1.87;;
3922;SDS011;1976;51.694;6.256;2023-08-21T10:24:02;6.97;;;1.50;;
3922;SDS011;1976;51.694;6.256;2023-08-21T10:26:27;2.07;;;1.10;;
3922;SDS011;1976;51.694;6.256;2023-08-21T10:28:54;2.67;;;1.00;;
3922;SDS011;1976;51.694;6.256;2023-08-21T10:33:57;4.47;;;1.30;;
3922;SDS011;1976;51.694;6.256;2023-08-21T10:39:18;2.13;;;0.70;;
3922;SDS011;1976;51.694;6.256;2023-08-21T10:41:55;4.67;;;1.37;;
3922;SDS011;1976;51.694;6.256;2023-08-21T10:49:46;3.07;;;1.17;;
3922;SDS011;1976;51.694;6.256;2023-08-21T10:52:13;2.67;;;1.10;;
3922;SDS011;1976;51.694;6.256;2023-08-21T10:54:46;2.07;;;1.10;;
3922;SDS011;1976;51.694;6.256;2023-08-21T10:57:13;4.17;;;0.97;;
3922;SDS011;1976;51.694;6.256;2023-08-21T10:59:48;2.70;;;1.17;;
3922;SDS011;1976;51.694;6.256;2023-08-21T11:02:17;3.60;;;1.10;;
3922;SDS011;1976;51.694;6.256;2023-08-21T11:04:43;2.60;;;1.00;;
3922;SDS011;1976;51.694;6.256;2023-08-21T11:07:10;4.03;;;1.30;;
3922;SDS011;1976;51.694;6.256;2023-08-21T11:09:36;4.77;;;1.20;;
3922;SDS011;1976;51.694;6.256;2023-08-21T11:12:08;1.37;;;0.90;;
3922;SDS011;1976;51.694;6.256;2023-08-21T11:14:38;12.93;;;1.90;;
3922;SDS011;1976;51.694;6.256;2023-08-21T11:17:04;6.33;;;1.60;;
3922;SDS011;1976;51.694;6.256;2023-08-21T11:19:33;12.03;;;1.40;;
3922;SDS011;1976;51.694;6.256;2023-08-21T11:21:59;8.33;;;1.67;;
3922;SDS011;1976;51.694;6.256;2023-08-21T11:27:04;2.37;;;1.10;;
3922;SDS011;1976;51.694;6.256;2023-08-21T11:29:37;2.67;;;1.40;;
3922;SDS011;1976;51.694;6.256;2023-08-21T11:32:07;1.90;;;1.27;;
3922;SDS011;1976;51.694;6.256;2023-08-21T11:34:41;3.70;;;1.60;;
3922;SDS011;1976;51.694;6.256;2023-08-21T11:37:09;1.47;;;1.00;;
3922;SDS011;1976;51.694;6.256;2023-08-21T11:39:42;4.10;;;1.07;;
3922;SDS011;1976;51.694;6.256;2023-08-21T11:42:16;6.90;;;1.30;;
3922;SDS011;1976;51.694;6.256;2023-08-21T11:44:43;2.37;;;1.07;;
3922;SDS011;1976;51.694;6.256;2023-08-21T11:47:11;7.43;;;1.10;;
3922;SDS011;1976;51.694;6.256;2023-08-21T11:49:38;2.30;;;1.03;;
3922;SDS011;1976;51.694;6.256;2023-08-21T11:52:06;2.60;;;0.90;;
3922;SDS011;1976;51.694;6.256;2023-08-21T11:54:33;2.65;;;0.90;;
3922;SDS011;1976;51.694;6.256;2023-08-21T11:57:03;2.50;;;1.15;;
3922;SDS011;1976;51.694;6.256;2023-08-21T11:59:30;5.28;;;1.45;;
3922;SDS011;1976;51.694;6.256;2023-08-21T12:01:56;3.40;;;1.17;;
3922;SDS011;1976;51.694;6.256;2023-08-21T12:04:22;3.20;;;1.08;;
3922;SDS011;1976;51.694;6.256;2023-08-21T12:06:49;2.05;;;1.08;;
3922;SDS011;1976;51.694;6.256;2023-08-21T12:09:14;4.40;;;1.20;;
3922;SDS011;1976;51.694;6.256;2023-08-21T12:11:40;2.20;;;1.10;;
3922;SDS011;1976;51.694;6.256;2023-08-21T12:14:06;3.80;;;1.30;;
3922;SDS011;1976;51.694;6.256;2023-08-21T12:16:32;4.00;;;1.20;;
3922;SDS011;1976;51.694;6.256;2023-08-21T12:18:58;3.03;;;1.20;;
3922;SDS011;1976;51.694;6.256;2023-08-21T12:21:24;2.90;;;1.30;;
3922;SDS011;1976;51.694;6.256;2023-08-21T12:23:50;2.13;;;1.17;;
3922;SDS011;1976;51.694;6.256;2023-08-21T12:26:15;1.03;;;0.93;;
3922;SDS011;1976;51.694;6.256;2023-08-21T12:28:46;2.80;;;1.20;;
3922;SDS011;1976;51.694;6.256;2023-08-21T12:31:12;2.27;;;1.07;;
3922;SDS011;1976;51.694;6.256;2023-08-21T12:33:38;3.40;;;0.90;;
3922;SDS011;1976;51.694;6.256;2023-08-21T12:36:04;3.40;;;1.43;;
3922;SDS011;1976;51.694;6.256;2023-08-21T12:38:29;2.60;;;0.93;;
3922;SDS011;1976;51.694;6.256;2023-08-21T12:40:55;6.83;;;1.03;;
3922;SDS011;1976;51.694;6.256;2023-08-21T12:43:21;1.60;;;0.90;;
3922;SDS011;1976;51.694;6.256;2023-08-21T12:45:46;4.93;;;1.30;;
3922;SDS011;1976;51.694;6.256;2023-08-21T12:48:12;6.63;;;1.60;;
3922;SDS011;1976;51.694;6.256;2023-08-21T12:50:38;2.50;;;1.50;;
3922;SDS011;1976;51.694;6.256;2023-08-21T12:53:04;2.40;;;1.30;;
3922;SDS011;1976;51.694;6.256;2023-08-21T12:55:30;3.23;;;1.27;;
3922;SDS011;1976;51.694;6.256;2023-08-21T12:57:56;6.43;;;1.90;;
3922;SDS011;1976;51.694;6.256;2023-08-21T13:00:22;1.57;;;1.20;;
3922;SDS011;1976;51.694;6.256;2023-08-21T13:02:47;2.93;;;1.27;;
3922;SDS011;1976;51.694;6.256;2023-08-21T13:05:13;6.43;;;1.17;;
3922;SDS011;1976;51.694;6.256;2023-08-21T13:07:39;5.27;;;1.67;;
3922;SDS011;1976;51.694;6.256;2023-08-21T13:10:06;5.93;;;1.63;;
3922;SDS011;1976;51.694;6.256;2023-08-21T13:12:32;6.33;;;1.10;;
3922;SDS011;1976;51.694;6.256;2023-08-21T13:14:57;3.40;;;1.67;;
3922;SDS011;1976;51.694;6.256;2023-08-21T13:17:23;1.17;;;1.07;;
3922;SDS011;1976;51.694;6.256;2023-08-21T13:19:49;7.67;;;1.57;;
3922;SDS011;1976;51.694;6.256;2023-08-21T13:22:17;8.27;;;1.47;;
3922;SDS011;1976;51.694;6.256;2023-08-21T13:24:43;5.60;;;1.17;;
3922;SDS011;1976;51.694;6.256;2023-08-21T13:27:09;23.87;;;1.70;;
3922;SDS011;1976;51.694;6.256;2023-08-21T13:29:35;2.07;;;1.27;;
3922;SDS011;1976;51.694;6.256;2023-08-21T13:32:02;3.50;;;1.47;;
3922;SDS011;1976;51.694;6.256;2023-08-21T13:34:28;1.13;;;0.97;;
3922;SDS011;1976;51.694;6.256;2023-08-21T13:36:53;4.03;;;1.30;;
3922;SDS011;1976;51.694;6.256;2023-08-21T13:39:19;1.30;;;1.20;;
3922;SDS011;1976;51.694;6.256;2023-08-21T13:41:45;1.20;;;1.10;;
3922;SDS011;1976;51.694;6.256;2023-08-21T13:44:10;1.83;;;1.40;;
3922;SDS011;1976;51.694;6.256;2023-08-21T13:46:36;2.60;;;1.40;;
3922;SDS011;1976;51.694;6.256;2023-08-21T13:49:01;4.63;;;1.17;;
3922;SDS011;1976;51.694;6.256;2023-08-21T13:51:27;2.77;;;1.20;;
3922;SDS011;1976;51.694;6.256;2023-08-21T13:53:53;3.60;;;1.27;;
3922;SDS011;1976;51.694;6.256;2023-08-21T13:56:18;4.63;;;1.40;;
3922;SDS011;1976;51.694;6.256;2023-08-21T13:58:44;13.47;;;1.60;;
3922;SDS011;1976;51.694;6.256;2023-08-21T14:01:10;3.53;;;1.10;;
3922;SDS011;1976;51.694;6.256;2023-08-21T14:03:36;4.07;;;1.40;;
3922;SDS011;1976;51.694;6.256;2023-08-21T14:06:01;2.93;;;1.30;;
3922;SDS011;1976;51.694;6.256;2023-08-21T14:08:27;4.83;;;1.50;;
3922;SDS011;1976;51.694;6.256;2023-08-21T14:10:53;3.90;;;1.50;;
3922;SDS011;1976;51.694;6.256;2023-08-21T14:13:18;4.00;;;1.47;;
3922;SDS011;1976;51.694;6.256;2023-08-21T14:15:44;2.60;;;1.30;;
3922;SDS011;1976;51.694;6.256;2023-08-21T14:18:10;4.40;;;1.33;;
3922;SDS011;1976;51.694;6.256;2023-08-21T14:20:35;4.63;;;1.53;;
3922;SDS011;1976;51.694;6.256;2023-08-21T14:23:01;5.57;;;1.67;;
3922;SDS011;1976;51.694;6.256;2023-08-21T14:25:27;3.53;;;1.63;;
3922;SDS011;1976;51.694;6.256;2023-08-21T14:27:52;4.87;;;1.67;;
3922;SDS011;1976;51.694;6.256;2023-08-21T14:30:18;3.80;;;1.40;;
3922;SDS011;1976;51.694;6.256;2023-08-21T14:32:44;4.03;;;2.07;;
3922;SDS011;1976;51.694;6.256;2023-08-21T14:35:09;5.70;;;1.77;;
3922;SDS011;1976;51.694;6.256;2023-08-21T14:37:35;3.10;;;1.63;;
3922;SDS011;1976;51.694;6.256;2023-08-21T14:40:01;15.43;;;1.37;;
3922;SDS011;1976;51.694;6.256;2023-08-21T14:42:32;3.70;;;1.53;;
3922;SDS011;1976;51.694;6.256;2023-08-21T14:44:58;2.50;;;1.13;;
3922;SDS011;1976;51.694;6.256;2023-08-21T14:47:23;14.73;;;1.50;;
3922;SDS011;1976;51.694;6.256;2023-08-21T14:49:49;4.87;;;1.53;;
3922;SDS011;1976;51.694;6.256;2023-08-21T14:52:16;3.73;;;1.57;;
3922;SDS011;1976;51.694;6.256;2023-08-21T14:54:42;4.17;;;1.30;;
3922;SDS011;1976;51.694;6.256;2023-08-21T14:57:07;5.43;;;2.57;;
3922;SDS011;1976;51.694;6.256;2023-08-21T14:59:33;4.40;;;1.20;;
3922;SDS011;1976;51.694;6.256;2023-08-21T15:01:59;5.03;;;1.50;;
3922;SDS011;1976;51.694;6.256;2023-08-21T15:04:25;8.67;;;1.53;;
3922;SDS011;1976;51.694;6.256;2023-08-21T15:06:50;6.73;;;2.43;;
3922;SDS011;1976;51.694;6.256;2023-08-21T15:09:16;7.93;;;1.80;;
3922;SDS011;1976;51.694;6.256;2023-08-21T15:11:42;5.70;;;1.63;;
3922;SDS011;1976;51.694;6.256;2023-08-21T15:14:10;3.57;;;1.33;;
3922;SDS011;1976;51.694;6.256;2023-08-21T15:16:36;11.37;;;3.23;;
3922;SDS011;1976;51.694;6.256;2023-08-21T15:19:02;10.50;;;1.87;;
3922;SDS011;1976;51.694;6.256;2023-08-21T15:21:28;8.27;;;1.70;;
3922;SDS011;1976;51.694;6.256;2023-08-21T15:23:54;4.00;;;1.30;;